Time;durP1;ratioP1;P1;durP2;ratioP2;P2;SDS_P1;SDS_P2;PMS_P1;PMS_P2;Temp;Humidity;BMP_temperature;BMP_pressure;BME280_temperature;BME280_humidity;BME280_pressure;Samples;Min_cycle;Max_cycle;Signal;HPM_P1;HPM_P2
2023/05/15 00:01:56;;;;;;;60.53;27.33;;;;;;;12.98;100.00;101134.09;4915177;28;20167;-85
2023/05/15 00:04:21;;;;;;;59.38;25.65;;;;;;;12.86;100.00;101137.88;4949581;28;20066;-85
2023/05/15 00:06:47;;;;;;;56.25;25.88;;;;;;;12.93;100.00;101136.34;4963263;28;20062;-85
2023/05/15 00:09:12;;;;;;;73.30;28.38;;;;;;;12.83;100.00;101141.75;4967674;28;20034;-85
2023/05/15 00:11:38;;;;;;;62.58;27.05;;;;;;;12.74;100.00;101133.41;4982308;28;20030;-85
2023/05/15 00:14:03;;;;;;;55.92;25.60;;;;;;;12.75;100.00;101146.16;4932801;28;20045;-85
2023/05/15 00:16:29;;;;;;;61.90;26.13;;;;;;;12.74;100.00;101141.66;4930233;28;20054;-85
2023/05/15 00:18:54;;;;;;;60.30;25.70;;;;;;;12.61;100.00;101137.19;4965905;28;20077;-85
2023/05/15 00:21:20;;;;;;;66.97;26.55;;;;;;;12.46;100.00;101128.38;4926989;28;20035;-84
2023/05/15 00:23:46;;;;;;;63.13;25.92;;;;;;;12.55;100.00;101134.09;4922227;29;20574;-84
2023/05/15 00:26:14;;;;;;;57.83;25.23;;;;;;;12.49;100.00;101132.72;4940979;28;20122;-84
2023/05/15 00:28:40;;;;;;;61.55;24.80;;;;;;;12.29;100.00;101112.41;4976952;28;20107;-83
2023/05/15 00:31:07;;;;;;;69.35;26.23;;;;;;;12.36;100.00;101115.50;4945873;28;20057;-85
2023/05/15 00:33:33;;;;;;;50.42;23.20;;;;;;;12.44;100.00;101124.00;4913671;28;20031;-84
2023/05/15 00:35:58;;;;;;;55.88;25.33;;;;;;;12.48;100.00;101125.50;4945318;28;20038;-85
2023/05/15 00:38:23;;;;;;;57.97;25.02;;;;;;;12.40;100.00;101123.38;4943214;28;20039;-84
2023/05/15 00:40:51;;;;;;;55.58;25.10;;;;;;;12.35;100.00;101120.13;4933259;28;20138;-84
2023/05/15 00:43:17;;;;;;;58.58;24.20;;;;;;;12.36;100.00;101131.97;4929917;28;20450;-84
2023/05/15 00:45:43;;;;;;;70.93;25.38;;;;;;;12.29;100.00;101131.63;4944961;28;20035;-84
2023/05/15 00:48:09;;;;;;;56.20;24.33;;;;;;;12.29;100.00;101120.63;4945271;28;20027;-84
2023/05/15 00:50:35;;;;;;;62.35;24.67;;;;;;;12.26;100.00;101116.25;4951322;28;20066;-83
2023/05/15 00:53:02;;;;;;;66.45;25.10;;;;;;;12.27;100.00;101106.16;4947320;28;20026;-84
2023/05/15 00:55:28;;;;;;;56.00;24.73;;;;;;;12.29;100.00;101116.00;4930164;28;20102;-84
2023/05/15 00:57:56;;;;;;;57.35;25.08;;;;;;;12.26;100.00;101105.28;4963754;28;20033;-84
2023/05/15 01:00:22;;;;;;;56.15;25.00;;;;;;;12.23;100.00;101112.91;4970071;28;20453;-78
2023/05/15 01:02:47;;;;;;;54.78;24.90;;;;;;;12.28;100.00;101113.38;4963463;28;20034;-79
2023/05/15 01:05:13;;;;;;;61.63;27.00;;;;;;;12.14;100.00;101100.81;4955655;28;20084;-80
2023/05/15 01:07:48;;;;;;;64.22;25.77;;;;;;;12.17;100.00;101108.78;4963226;28;20027;-79
2023/05/15 01:10:16;;;;;;;53.83;25.40;;;;;;;12.15;100.00;101113.53;4982748;28;20109;-79
2023/05/15 01:12:44;;;;;;;58.35;25.05;;;;;;;12.08;100.00;101107.66;4969006;28;20026;-79
2023/05/15 01:15:10;;;;;;;61.55;26.13;;;;;;;11.99;100.00;101099.34;4951883;28;20045;-79
2023/05/15 01:17:36;;;;;;;59.00;26.30;;;;;;;12.05;100.00;101107.03;4957394;28;20047;-79
2023/05/15 01:20:05;;;;;;;58.17;26.95;;;;;;;11.97;100.00;101095.81;4951132;28;20085;-79
2023/05/15 01:22:40;;;;;;;63.67;25.95;;;;;;;11.90;100.00;101112.75;4991208;28;20046;-79
2023/05/15 01:25:56;;;;;;;59.00;25.13;;;;;;;11.91;100.00;101106.28;4945438;28;20034;-79
2023/05/15 01:28:30;;;;;;;70.35;26.60;;;;;;;11.87;100.00;101109.38;4947196;28;20078;-78
2023/05/15 01:31:00;;;;;;;68.55;27.58;;;;;;;11.80;100.00;101108.13;4969179;28;20022;-79
2023/05/15 01:33:37;;;;;;;65.95;28.25;;;;;;;11.83;100.00;101105.16;4973270;28;20066;-78
2023/05/15 01:36:12;;;;;;;66.45;28.50;;;;;;;11.74;100.00;101093.00;4955323;28;20035;-78
2023/05/15 01:38:41;;;;;;;63.55;29.00;;;;;;;11.82;100.00;101107.00;4973809;28;20030;-78
2023/05/15 01:41:19;;;;;;;80.47;30.80;;;;;;;11.84;100.00;101096.78;4969078;28;20153;-79
2023/05/15 01:43:50;;;;;;;68.93;30.13;;;;;;;11.86;100.00;101104.91;4966003;28;20041;-78
2023/05/15 01:46:20;;;;;;;64.32;30.48;;;;;;;11.75;100.00;101106.63;4992604;28;20369;-78
2023/05/15 01:48:48;;;;;;;79.60;30.63;;;;;;;11.81;100.00;101099.78;4946819;28;20018;-77
2023/05/15 01:51:16;;;;;;;80.15;30.27;;;;;;;11.74;100.00;101106.72;4965439;28;20039;-78
2023/05/15 01:53:44;;;;;;;77.80;32.42;;;;;;;11.69;100.00;101095.25;4949390;28;20030;-78
2023/05/15 01:56:14;;;;;;;73.00;31.88;;;;;;;11.56;100.00;101088.03;4967026;28;20398;-78
2023/05/15 01:58:40;;;;;;;74.53;31.85;;;;;;;11.57;100.00;101089.75;5000303;28;20417;-77
2023/05/15 02:01:08;;;;;;;76.93;33.80;;;;;;;11.62;100.00;101088.53;4932593;28;20117;-77
2023/05/15 02:03:34;;;;;;;82.13;34.17;;;;;;;11.56;100.00;101088.03;4992232;28;20393;-78
2023/05/15 02:06:02;;;;;;;93.75;33.72;;;;;;;11.53;100.00;101088.28;4984886;28;20090;-78
2023/05/15 02:08:29;;;;;;;79.25;34.17;;;;;;;11.59;100.00;101081.41;4966551;28;20029;-78
2023/05/15 02:10:57;;;;;;;72.35;32.17;;;;;;;11.57;100.00;101073.31;4971484;28;20086;-78
2023/05/15 02:13:24;;;;;;;74.15;33.05;;;;;;;11.59;100.00;101100.59;4954783;28;20041;-78
2023/05/15 02:15:49;;;;;;;78.82;32.83;;;;;;;11.52;100.00;101093.88;4995923;28;20061;-78
2023/05/15 02:18:15;;;;;;;77.00;33.88;;;;;;;11.50;100.00;101091.25;4938436;28;20050;-79
2023/05/15 02:20:40;;;;;;;82.97;34.67;;;;;;;11.52;100.00;101092.00;4944740;28;20034;-79
2023/05/15 02:23:06;;;;;;;81.88;33.53;;;;;;;11.44;100.00;101094.47;4933278;28;20046;-78
2023/05/15 02:25:58;;;;;;;79.93;34.50;;;;;;;11.34;100.00;101080.63;4934965;28;20057;-79
2023/05/15 02:28:41;;;;;;;82.70;34.42;;;;;;;11.36;100.00;101100.59;4951307;28;20122;-78
2023/05/15 02:31:16;;;;;;;79.43;35.40;;;;;;;11.24;100.00;101106.16;4976693;28;20083;-78
2023/05/15 02:34:11;;;;;;;85.28;36.88;;;;;;;11.25;100.00;101111.50;4967738;28;20026;-82
2023/05/15 02:36:40;;;;;;;85.40;35.75;;;;;;;11.19;100.00;101109.25;4953988;28;20153;-79
2023/05/15 02:39:08;;;;;;;82.80;35.67;;;;;;;11.16;100.00;101099.38;4975377;28;20027;-79
2023/05/15 02:41:35;;;;;;;83.50;37.58;;;;;;;11.13;100.00;101096.88;4962132;28;20027;-79
2023/05/15 02:44:02;;;;;;;90.95;36.22;;;;;;;11.04;100.00;101105.81;4952799;28;20390;-80
2023/05/15 02:46:28;;;;;;;91.68;38.05;;;;;;;11.12;100.00;101095.16;4934088;28;20035;-80
2023/05/15 02:48:54;;;;;;;91.13;38.35;;;;;;;11.02;100.00;101100.47;4966333;28;20068;-80
2023/05/15 02:51:20;;;;;;;94.13;38.00;;;;;;;11.10;100.00;101101.72;4949463;28;20038;-80
2023/05/15 02:53:45;;;;;;;87.15;38.25;;;;;;;11.03;100.00;101095.84;4941271;29;20091;-80
2023/05/15 02:56:11;;;;;;;97.70;37.30;;;;;;;10.99;100.00;101075.16;4974659;28;20498;-81
2023/05/15 02:58:38;;;;;;;102.38;38.78;;;;;;;11.02;100.00;101091.38;4931946;28;20035;-80
2023/05/15 03:01:03;;;;;;;96.10;40.60;;;;;;;10.96;100.00;101092.72;4963697;28;20035;-80
2023/05/15 03:03:29;;;;;;;94.93;40.20;;;;;;;10.96;100.00;101081.75;4939032;29;20051;-80
2023/05/15 03:05:55;;;;;;;94.85;39.30;;;;;;;10.84;100.00;101083.56;4944445;28;20038;-80
2023/05/15 03:08:20;;;;;;;93.28;40.47;;;;;;;10.87;100.00;101070.63;4960013;28;20136;-80
2023/05/15 03:10:46;;;;;;;99.13;38.45;;;;;;;10.87;100.00;101082.47;4949944;28;20031;-80
2023/05/15 03:13:11;;;;;;;103.13;41.05;;;;;;;10.73;100.00;101069.81;4948230;28;20486;-79
2023/05/15 03:15:36;;;;;;;95.82;41.40;;;;;;;10.70;100.00;101083.75;4939948;29;20118;-80
2023/05/15 03:18:02;;;;;;;100.03;40.55;;;;;;;10.61;100.00;101068.91;4923206;28;20051;-79
2023/05/15 03:20:27;;;;;;;90.55;39.13;;;;;;;10.71;100.00;101090.09;4973680;28;20039;-79
2023/05/15 03:22:53;;;;;;;91.47;39.95;;;;;;;10.66;100.00;101087.72;4917355;29;20035;-79
2023/05/15 03:25:18;;;;;;;103.28;41.00;;;;;;;10.70;100.00;101091.09;4966121;28;20031;-79
2023/05/15 03:27:44;;;;;;;105.45;40.88;;;;;;;10.70;100.00;101080.16;4992005;28;20027;-80
2023/05/15 03:30:10;;;;;;;89.70;39.97;;;;;;;10.60;100.00;101086.31;4964381;28;20049;-78
2023/05/15 03:32:38;;;;;;;93.75;39.90;;;;;;;10.58;100.00;101082.81;4973737;28;20034;-79
2023/05/15 03:35:04;;;;;;;94.72;41.03;;;;;;;10.71;100.00;101081.88;4965428;28;20082;-78
2023/05/15 03:37:29;;;;;;;96.50;39.60;;;;;;;10.58;100.00;101076.47;4947594;28;20210;-80
2023/05/15 03:39:55;;;;;;;93.95;39.85;;;;;;;10.68;100.00;101090.34;4953109;28;20081;-79
2023/05/15 03:42:22;;;;;;;98.45;37.47;;;;;;;10.65;100.00;101102.41;4953862;28;20016;-80
2023/05/15 03:44:49;;;;;;;96.65;38.40;;;;;;;10.71;100.00;101101.03;4973190;28;20045;-80
2023/05/15 03:47:15;;;;;;;91.82;39.92;;;;;;;10.82;100.00;101098.38;4968619;28;20019;-81
2023/05/15 03:49:41;;;;;;;96.40;39.88;;;;;;;10.71;100.00;101081.88;4940597;28;20041;-79
2023/05/15 03:52:07;;;;;;;99.40;40.70;;;;;;;10.68;100.00;101084.88;4939642;28;20043;-79
2023/05/15 03:54:32;;;;;;;98.40;39.67;;;;;;;10.71;100.00;101093.72;4951168;28;20082;-79
2023/05/15 03:56:58;;;;;;;100.47;41.00;;;;;;;10.73;100.00;101094.47;4976738;28;20034;-79
2023/05/15 03:59:24;;;;;;;100.68;40.65;;;;;;;10.66;100.00;101090.47;4940049;28;20443;-78
2023/05/15 04:01:49;;;;;;;104.38;42.67;;;;;;;10.85;100.00;101095.41;4963390;28;20030;-78
2023/05/15 04:04:15;;;;;;;102.13;42.00;;;;;;;10.76;100.00;101096.97;4973074;28;20037;-78
2023/05/15 04:06:40;;;;;;;113.68;43.63;;;;;;;10.73;100.00;101099.09;4955073;28;20121;-78
2023/05/15 04:09:06;;;;;;;98.22;41.90;;;;;;;10.83;100.00;101102.88;4946022;29;20063;-81
2023/05/15 04:11:33;;;;;;;110.93;44.08;;;;;;;10.77;100.00;101095.09;4952862;28;20030;-80
2023/05/15 04:13:58;;;;;;;105.00;40.83;;;;;;;10.79;100.00;101101.34;4937347;28;20038;-81
2023/05/15 04:16:23;;;;;;;112.55;43.30;;;;;;;10.72;100.00;101094.59;4949000;28;20086;-81
2023/05/15 04:18:49;;;;;;;112.85;45.45;;;;;;;10.73;100.00;101101.81;4953917;28;20048;-81
2023/05/15 04:21:14;;;;;;;110.80;44.75;;;;;;;10.74;100.00;101096.22;4932482;28;20031;-81
2023/05/15 04:23:40;;;;;;;108.03;43.30;;;;;;;10.76;100.00;101104.34;4971225;28;20046;-81
2023/05/15 04:26:07;;;;;;;109.55;43.40;;;;;;;10.72;100.00;101100.94;4931333;28;20069;-81
2023/05/15 04:28:32;;;;;;;104.90;43.65;;;;;;;10.65;100.00;101078.63;4981084;28;20480;-80
2023/05/15 04:30:58;;;;;;;113.15;43.53;;;;;;;10.58;100.00;101081.97;4949750;28;20117;-80
2023/05/15 04:33:24;;;;;;;118.10;45.20;;;;;;;10.66;100.00;101098.69;4942294;29;20410;-78
2023/05/15 04:35:50;;;;;;;115.18;44.67;;;;;;;10.77;100.00;101093.25;4944002;28;20618;-80
2023/05/15 04:38:16;;;;;;;106.03;43.15;;;;;;;10.81;100.00;101102.97;4932713;28;20063;-80
2023/05/15 04:40:42;;;;;;;113.60;43.50;;;;;;;10.71;100.00;101096.47;4947791;28;20039;-80
2023/05/15 04:43:07;;;;;;;109.30;44.38;;;;;;;10.60;100.00;101101.88;4975239;28;20096;-80
2023/05/15 04:45:33;;;;;;;111.53;45.45;;;;;;;10.62;100.00;101091.66;4950629;28;20051;-82
2023/05/15 04:47:58;;;;;;;116.55;44.25;;;;;;;10.54;100.00;101099.59;4930135;28;20045;-83
2023/05/15 04:50:24;;;;;;;120.03;45.88;;;;;;;10.64;100.00;101122.53;4945199;28;20027;-81
2023/05/15 04:52:50;;;;;;;111.93;45.25;;;;;;;10.85;100.00;101111.84;4945359;28;20130;-81
2023/05/15 04:55:15;;;;;;;106.75;42.80;;;;;;;10.68;100.00;101093.94;4944072;29;20368;-81
2023/05/15 04:57:41;;;;;;;127.05;45.92;;;;;;;10.64;100.00;101103.38;4953603;28;20474;-83
2023/05/15 05:00:10;;;;;;;115.78;45.55;;;;;;;10.78;100.00;101116.03;4924548;29;20063;-81
2023/05/15 05:02:37;;;;;;;105.30;44.20;;;;;;;10.79;100.00;101112.28;4965093;28;20124;-81
2023/05/15 05:05:03;;;;;;;113.32;44.60;;;;;;;10.87;100.00;101122.66;4965483;29;20042;-82
2023/05/15 05:07:28;;;;;;;120.47;45.42;;;;;;;10.84;100.00;101121.06;4988519;28;20030;-81
2023/05/15 05:09:54;;;;;;;109.97;45.45;;;;;;;11.06;100.00;101123.00;4944510;28;20095;-85
2023/05/15 05:12:19;;;;;;;112.07;44.17;;;;;;;11.02;100.00;101130.59;4946091;28;20090;-81
2023/05/15 05:14:45;;;;;;;103.88;44.35;;;;;;;11.10;100.00;101130.03;4985424;28;20110;-82
2023/05/15 05:17:11;;;;;;;106.75;45.35;;;;;;;11.00;100.00;101128.97;4957396;28;20037;-81
2023/05/15 05:19:36;;;;;;;105.95;44.75;;;;;;;11.15;100.00;101141.50;4963852;28;20401;-82
2023/05/15 05:22:04;;;;;;;118.55;46.72;;;;;;;10.91;100.00;101141.50;4946312;28;20050;-81
2023/05/15 05:24:30;;;;;;;110.20;45.75;;;;;;;10.88;100.00;101133.50;4979929;28;20042;-77
2023/05/15 05:26:57;;;;;;;113.97;46.25;;;;;;;10.94;100.00;101132.19;4966704;28;20089;-81
2023/05/15 05:29:23;;;;;;;107.30;43.50;;;;;;;10.78;100.00;101152.50;4948998;28;20035;-81
2023/05/15 05:31:48;;;;;;;113.22;45.30;;;;;;;10.61;100.00;101145.56;4952044;28;20056;-79
2023/05/15 05:34:14;;;;;;;119.22;45.25;;;;;;;10.61;100.00;101150.19;4916802;28;20043;-82
2023/05/15 05:36:39;;;;;;;113.78;45.53;;;;;;;10.70;100.00;101152.22;4933563;28;20555;-82
2023/05/15 05:39:05;;;;;;;117.13;46.45;;;;;;;10.79;100.00;101148.78;4935115;28;20046;-81
2023/05/15 05:41:31;;;;;;;113.72;43.60;;;;;;;10.90;100.00;101152.56;4930916;29;20039;-82
2023/05/15 05:43:56;;;;;;;121.78;46.13;;;;;;;10.90;100.00;101158.91;4940332;29;20478;-82
2023/05/15 05:46:22;;;;;;;116.55;43.38;;;;;;;11.08;100.00;101145.69;4970183;28;20455;-82
2023/05/15 05:48:47;;;;;;;106.45;44.72;;;;;;;11.31;100.00;101143.91;4969990;28;20103;-83
2023/05/15 05:51:13;;;;;;;110.80;43.25;;;;;;;11.41;100.00;101155.03;4947003;28;20035;-82
2023/05/15 05:53:39;;;;;;;112.60;45.40;;;;;;;11.37;100.00;101148.06;4977474;28;20034;-82
2023/05/15 05:56:05;;;;;;;105.20;42.88;;;;;;;11.29;100.00;101147.78;4936222;28;20046;-81
2023/05/15 05:58:30;;;;;;;104.03;42.92;;;;;;;11.40;100.00;101154.16;4916794;28;20383;-81
2023/05/15 06:00:56;;;;;;;118.90;43.72;;;;;;;11.33;100.00;101152.00;4949995;28;20034;-81
2023/05/15 06:03:22;;;;;;;99.55;41.83;;;;;;;11.43;100.00;101150.31;4935299;29;20035;-82
2023/05/15 06:05:48;;;;;;;100.45;41.72;;;;;;;11.49;100.00;101160.78;4958987;28;20030;-81
2023/05/15 06:08:14;;;;;;;103.22;41.22;;;;;;;11.37;100.00;101162.63;4994180;28;20035;-81
2023/05/15 06:10:40;;;;;;;101.95;40.70;;;;;;;11.18;100.00;101145.84;4909284;28;20213;-79
2023/05/15 06:13:06;;;;;;;92.50;39.90;;;;;;;11.87;100.00;101164.25;4938247;28;20038;-81
2023/05/15 06:15:31;;;;;;;90.22;40.33;;;;;;;11.80;100.00;101165.75;4934536;28;20402;-79
2023/05/15 06:17:57;;;;;;;87.97;39.10;;;;;;;12.02;100.00;101168.56;4934456;28;20057;-83
2023/05/15 06:20:22;;;;;;;95.50;41.17;;;;;;;12.05;100.00;101172.91;4927834;28;20142;-80
2023/05/15 06:22:48;;;;;;;98.38;41.00;;;;;;;12.29;100.00;101184.66;4947383;28;20034;-80
2023/05/15 06:25:13;;;;;;;92.38;39.22;;;;;;;12.82;100.00;101175.75;4961439;28;20129;-80
2023/05/15 06:27:40;;;;;;;83.38;37.63;;;;;;;13.02;100.00;101168.56;4964352;28;20031;-79
2023/05/15 06:30:07;;;;;;;94.18;37.90;;;;;;;12.40;100.00;101160.97;4956835;28;20058;-83
2023/05/15 06:32:33;;;;;;;87.32;38.08;;;;;;;12.45;100.00;101165.06;4956654;28;20077;-79
2023/05/15 06:34:58;;;;;;;83.90;36.85;;;;;;;12.75;100.00;101170.88;4939287;28;20058;-78
2023/05/15 06:37:24;;;;;;;78.95;36.70;;;;;;;13.26;100.00;101169.34;4936106;28;20049;-83
2023/05/15 06:39:50;;;;;;;82.47;35.55;;;;;;;13.69;100.00;101169.31;4940475;28;20458;-83
2023/05/15 06:42:15;;;;;;;72.97;34.33;;;;;;;13.90;100.00;101184.94;4942493;28;20114;-80
2023/05/15 06:44:41;;;;;;;83.72;36.25;;;;;;;13.86;100.00;101175.22;4946155;28;20493;-79
2023/05/15 06:47:06;;;;;;;74.70;36.15;;;;;;;13.58;100.00;101183.13;4937516;28;20052;-79
2023/05/15 06:49:32;;;;;;;67.40;34.40;;;;;;;14.21;100.00;101168.44;4944566;28;20046;-79
2023/05/15 06:51:58;;;;;;;68.32;33.92;;;;;;;14.07;100.00;101169.66;4910902;28;20027;-81
2023/05/15 06:54:24;;;;;;;76.72;33.65;;;;;;;14.28;100.00;101167.75;4946095;28;20049;-82
2023/05/15 06:56:50;;;;;;;69.07;34.55;;;;;;;14.26;100.00;101179.91;4923257;28;20034;-81
2023/05/15 06:59:15;;;;;;;73.70;35.40;;;;;;;14.73;100.00;101149.97;4966293;28;20419;-79
2023/05/15 07:01:40;;;;;;;68.80;34.45;;;;;;;14.77;100.00;101167.94;4925796;28;20045;-82
2023/05/15 07:04:06;;;;;;;73.53;35.50;;;;;;;14.75;100.00;101167.22;4980651;28;20050;-80
2023/05/15 07:06:31;;;;;;;72.88;35.28;;;;;;;14.68;100.00;101166.06;4923253;28;20142;-78
2023/05/15 07:08:58;;;;;;;67.50;33.53;;;;;;;14.91;100.00;101168.59;4958447;28;20618;-78
2023/05/15 07:11:23;;;;;;;64.70;33.20;;;;;;;15.34;100.00;101159.91;4968169;28;20058;-78
2023/05/15 07:13:49;;;;;;;66.03;34.72;;;;;;;15.31;100.00;101151.03;4938639;28;20166;-79
2023/05/15 07:16:15;;;;;;;68.28;35.65;;;;;;;15.58;100.00;101148.41;4926701;28;20039;-79
2023/05/15 07:18:40;;;;;;;64.22;34.40;;;;;;;16.13;100.00;101161.56;4945058;28;20043;-80
2023/05/15 07:21:06;;;;;;;61.33;33.85;;;;;;;16.45;100.00;101148.34;4960063;28;20105;-80
2023/05/15 07:23:31;;;;;;;72.40;33.92;;;;;;;15.73;100.00;101159.88;4958204;28;20049;-80
2023/05/15 07:25:56;;;;;;;61.40;31.55;;;;;;;15.91;100.00;101164.69;4928444;28;20058;-80
2023/05/15 07:28:22;;;;;;;56.35;30.73;;;;;;;16.33;100.00;101164.22;4931411;28;20042;-80
2023/05/15 07:30:48;;;;;;;54.55;28.80;;;;;;;15.83;100.00;101170.06;4955105;28;20037;-80
2023/05/15 07:33:13;;;;;;;50.20;28.55;;;;;;;15.46;100.00;101163.38;4959850;28;20508;-80
2023/05/15 07:35:39;;;;;;;52.15;28.23;;;;;;;16.49;100.00;101163.59;4935540;28;20038;-80
2023/05/15 07:38:04;;;;;;;53.53;28.00;;;;;;;16.54;100.00;101151.06;4940784;28;20120;-80
2023/05/15 07:40:30;;;;;;;47.75;27.35;;;;;;;16.99;100.00;101156.81;4957399;28;20034;-81
2023/05/15 07:42:55;;;;;;;48.45;29.13;;;;;;;16.81;100.00;101153.97;4949873;28;20142;-81
2023/05/15 07:45:21;;;;;;;55.55;28.95;;;;;;;17.30;100.00;101157.31;4932065;28;20045;-81
2023/05/15 07:47:48;;;;;;;53.88;30.55;;;;;;;16.87;100.00;101153.38;4952614;29;20070;-80
2023/05/15 07:50:14;;;;;;;51.33;28.48;;;;;;;17.49;100.00;101155.38;4937756;28;20038;-80
2023/05/15 07:52:40;;;;;;;53.08;28.48;;;;;;;17.11;100.00;101149.16;4955669;28;20065;-80
2023/05/15 07:55:07;;;;;;;49.90;28.48;;;;;;;17.03;100.00;101159.06;4936859;28;20038;-80
2023/05/15 07:57:32;;;;;;;49.10;27.38;;;;;;;17.05;100.00;101151.53;4955821;28;20053;-80
2023/05/15 07:59:58;;;;;;;54.05;27.27;;;;;;;16.74;100.00;101156.47;4926563;28;20125;-81
2023/05/15 08:02:23;;;;;;;48.92;27.35;;;;;;;17.66;100.00;101160.03;4931902;28;20110;-80
2023/05/15 08:04:49;;;;;;;48.97;27.60;;;;;;;17.07;100.00;101155.00;4935850;28;20035;-80
2023/05/15 08:07:15;;;;;;;51.13;27.45;;;;;;;17.42;97.76;101169.00;4923758;28;20027;-81
2023/05/15 08:09:40;;;;;;;42.92;25.27;;;;;;;17.37;96.13;101152.84;4945614;28;20045;-80
2023/05/15 08:12:16;;;;;;;49.03;25.13;;;;;;;17.79;95.37;101163.25;4958308;28;20033;-81
2023/05/15 08:14:42;;;;;;;51.33;26.05;;;;;;;17.26;96.01;101158.63;4957425;28;20413;-82
2023/05/15 08:17:07;;;;;;;43.60;23.05;;;;;;;16.87;96.85;101158.91;4949972;28;20030;-79
2023/05/15 08:19:32;;;;;;;51.40;26.38;;;;;;;16.93;95.64;101155.53;4948463;28;20058;-79
2023/05/15 08:21:58;;;;;;;45.00;26.13;;;;;;;17.49;94.56;101158.16;4941295;28;20034;-81
2023/05/15 08:24:23;;;;;;;44.15;24.30;;;;;;;17.20;95.20;101157.38;4928372;28;20063;-79
2023/05/15 08:26:49;;;;;;;46.38;23.13;;;;;;;18.95;84.84;101158.38;4947624;28;20121;-79
2023/05/15 08:29:15;;;;;;;41.72;25.35;;;;;;;18.27;87.20;101138.84;4944666;28;20398;-78
2023/05/15 08:31:41;;;;;;;42.45;24.38;;;;;;;18.29;88.40;101149.75;4951733;29;20047;-79
2023/05/15 08:34:06;;;;;;;42.88;25.42;;;;;;;17.34;93.35;101144.88;4980852;28;20068;-79
2023/05/15 08:36:32;;;;;;;48.03;25.52;;;;;;;18.13;90.71;101154.16;4982514;28;20438;-79
2023/05/15 08:38:58;;;;;;;41.85;22.95;;;;;;;18.46;88.32;101137.72;4956425;28;20066;-80
2023/05/15 08:41:30;;;;;;;45.05;24.30;;;;;;;18.45;85.81;101130.44;4940613;28;20046;-78
2023/05/15 08:43:57;;;;;;;45.30;24.50;;;;;;;18.86;88.37;101141.72;4965216;28;20445;-77
2023/05/15 08:46:22;;;;;;;35.10;21.98;;;;;;;19.56;82.40;101142.31;4961596;28;20030;-77
2023/05/15 08:48:51;;;;;;;41.08;21.75;;;;;;;18.99;80.39;101144.00;4941956;28;20089;-78
2023/05/15 08:51:17;;;;;;;36.20;20.90;;;;;;;19.05;78.73;101143.34;4946328;28;20069;-77
2023/05/15 08:53:44;;;;;;;33.53;20.05;;;;;;;19.84;75.02;101131.78;4951252;28;20046;-78
2023/05/15 08:56:10;;;;;;;45.80;21.58;;;;;;;18.88;77.10;101136.00;4959099;28;20031;-76
2023/05/15 08:58:36;;;;;;;37.75;20.55;;;;;;;19.30;79.16;101132.25;4945987;28;20402;-77
2023/05/15 09:01:02;;;;;;;41.63;20.40;;;;;;;19.69;76.50;101131.53;4953147;28;20185;-76
2023/05/15 09:03:27;;;;;;;36.63;21.38;;;;;;;19.13;76.03;101119.38;4951872;28;20588;-78
2023/05/15 09:05:54;;;;;;;35.08;19.60;;;;;;;19.43;75.28;101126.16;4962564;28;20058;-77
2023/05/15 09:08:22;;;;;;;26.90;17.45;;;;;;;20.35;66.35;101126.78;4963939;28;20038;-78
2023/05/15 09:10:48;;;;;;;28.15;18.98;;;;;;;19.12;71.63;101123.19;4983145;28;20049;-77
2023/05/15 09:13:14;;;;;;;37.08;19.83;;;;;;;19.78;69.36;101108.31;4940089;28;20122;-78
2023/05/15 09:15:39;;;;;;;30.08;18.42;;;;;;;19.83;73.00;101116.13;4964241;28;20042;-80
2023/05/15 09:18:06;;;;;;;32.40;19.25;;;;;;;20.00;71.37;101120.63;4955685;28;20030;-80
2023/05/15 09:20:36;;;;;;;34.50;19.20;;;;;;;19.85;71.17;101119.59;4946139;28;20106;-76
2023/05/15 09:23:04;;;;;;;28.55;17.38;;;;;;;19.76;69.00;101126.22;4946378;28;20052;-77
2023/05/15 09:25:38;;;;;;;33.08;16.50;;;;;;;20.61;67.90;101128.41;4979127;28;20041;-77
2023/05/15 09:28:23;;;;;;;39.30;17.92;;;;;;;20.20;69.07;101120.19;4968667;28;20061;-79
2023/05/15 09:30:49;;;;;;;30.10;17.35;;;;;;;20.31;69.37;101124.53;4972345;28;20047;-77
2023/05/15 09:33:25;;;;;;;27.10;17.00;;;;;;;19.65;69.27;101122.69;4960454;28;20042;-77
2023/05/15 09:35:51;;;;;;;26.73;17.42;;;;;;;19.54;72.63;101122.19;4946232;28;20038;-78
2023/05/15 09:38:18;;;;;;;36.03;18.67;;;;;;;19.80;71.06;101117.34;4975787;28;20030;-78
2023/05/15 09:40:43;;;;;;;25.60;16.02;;;;;;;20.33;68.62;101122.41;4958824;28;20046;-77
2023/05/15 09:43:10;;;;;;;28.40;16.05;;;;;;;21.70;65.89;101122.00;4982961;28;20565;-77
2023/05/15 09:45:36;;;;;;;31.90;18.40;;;;;;;20.65;67.88;101115.88;4912760;28;20376;-76
2023/05/15 09:48:05;;;;;;;28.27;17.40;;;;;;;20.70;66.22;101123.69;4978789;28;20077;-78
2023/05/15 09:50:38;;;;;;;26.45;15.48;;;;;;;20.23;66.73;101121.75;4954918;28;20923;-76
2023/05/15 09:53:04;;;;;;;29.40;18.52;;;;;;;20.84;68.55;101127.63;4957737;28;20041;-75
2023/05/15 09:55:33;;;;;;;31.63;19.23;;;;;;;20.78;68.40;101131.16;4947756;28;20445;-76
2023/05/15 09:58:10;;;;;;;33.63;18.20;;;;;;;20.60;68.47;101121.09;4979435;28;20047;-75
2023/05/15 10:00:37;;;;;;;34.20;18.67;;;;;;;19.87;71.29;101114.72;4946382;28;20058;-74
2023/05/15 10:03:07;;;;;;;30.10;18.85;;;;;;;19.56;71.79;101120.09;4959657;28;20080;-75
2023/05/15 10:05:33;;;;;;;29.02;17.33;;;;;;;19.31;71.25;101113.69;4944972;28;20043;-75
2023/05/15 10:07:59;;;;;;;31.08;18.55;;;;;;;19.25;72.57;101110.56;4977335;28;20100;-76
2023/05/15 10:10:26;;;;;;;30.63;19.25;;;;;;;19.24;72.11;101121.84;4933740;28;20038;-76
2023/05/15 10:12:53;;;;;;;36.10;19.98;;;;;;;19.21;71.34;101114.72;4965484;28;20081;-74
2023/05/15 10:15:21;;;;;;;32.58;19.63;;;;;;;20.01;71.71;101119.56;4979592;28;20034;-78
2023/05/15 10:17:49;;;;;;;31.63;17.45;;;;;;;20.06;71.54;101105.13;4976441;28;20110;-75
2023/05/15 10:20:19;;;;;;;35.78;20.00;;;;;;;20.10;72.26;101112.09;4957017;28;20458;-76
2023/05/15 10:22:55;;;;;;;41.50;20.77;;;;;;;20.35;72.35;101100.88;4944479;28;20034;-75
2023/05/15 10:25:29;;;;;;;32.78;20.95;;;;;;;20.87;72.00;101116.13;4980111;28;20200;-76
2023/05/15 10:27:56;;;;;;;40.08;22.20;;;;;;;21.07;72.50;101114.59;4962744;28;20449;-78
2023/05/15 10:30:24;;;;;;;43.70;24.05;;;;;;;20.63;70.70;101117.06;4965499;28;20026;-77
2023/05/15 10:32:50;;;;;;;35.95;22.02;;;;;;;20.72;70.63;101122.44;4978533;28;20105;-77
2023/05/15 10:35:16;;;;;;;36.20;23.02;;;;;;;19.89;70.68;101115.44;4981170;28;20022;-76
2023/05/15 10:37:44;;;;;;;38.97;24.90;;;;;;;20.17;73.60;101112.25;4950853;28;20383;-75
2023/05/15 10:40:11;;;;;;;30.58;19.25;;;;;;;19.82;69.10;101106.94;4967054;28;20387;-77
2023/05/15 10:42:40;;;;;;;23.90;11.95;;;;;;;20.46;61.86;101117.16;4961803;28;20026;-76
2023/05/15 10:45:07;;;;;;;27.33;14.02;;;;;;;19.56;65.37;101122.88;4975403;28;20026;-76
2023/05/15 10:47:34;;;;;;;28.02;16.05;;;;;;;19.00;66.47;101109.63;4966251;28;20045;-77
2023/05/15 10:50:00;;;;;;;30.13;18.02;;;;;;;19.36;67.76;101112.09;4960596;28;20050;-76
2023/05/15 10:52:26;;;;;;;33.30;18.98;;;;;;;19.85;68.56;101107.63;4984166;28;20027;-76
2023/05/15 10:54:55;;;;;;;35.97;20.02;;;;;;;19.16;72.52;101105.16;4977390;28;20480;-76
2023/05/15 10:57:21;;;;;;;37.42;20.05;;;;;;;18.96;75.63;101104.63;4974290;28;20526;-76
2023/05/15 10:59:47;;;;;;;49.30;21.75;;;;;;;19.11;77.19;101111.22;4974449;28;20038;-76
2023/05/15 11:02:26;;;;;;;38.72;23.70;;;;;;;18.81;80.14;101102.47;4984056;28;20037;-75